Lothian, MD

6:39 AM EDT on July 04, 2015 (GMT -0400)
Boones Estates | | Change Station
CLOSE
Current Station
Personal Weather Station
Location: Lothian, MD
Elevation: 118 ft
Nearby Weather Stations
Active Advisory: Coastal Flood Advisory

Elev 118 ft 38.81 °N, 76.68 °W | Updated 4 minutes ago

Mostly Cloudy
Mostly Cloudy
68.7 °F
Feels Like 68.7 °F
N
0.0
Wind Variable Wind from SSE
Gusts 0.0 mph

Today
High -- | Low -- °F
--% Chance of Precip.
Yesterday
High -- | Low -- °F
Precip. -- in
5:46 AM 8:35 PM
Waning Gibbous, 93% visible
Pressure 29.90 in
Visibility 9.0 miles
Clouds Few 9500 ft
Dew Point 66 °F
Humidity 92%
Rainfall 0.00 in
Snow Depth Not available.
UV 0 out of 12
Pollen .60 out of 12
Air Quality Not available.
Flu Activity Not available.
METAR KADW 040958Z AUTO 01003KT 9SM FEW095 20/20 A2988 RMK AO2 SLP123 T02010199 $

More Conditions Fewer Conditions

Pressure 29.90 in
Visibility 9.0 miles
Clouds Few 9500 ft
Dew Point 66 °F
Humidity 92%
Rainfall 0.00 in
Snow Depth Not available.
UV 0 out of 12
Pollen .60 out of 12
Air Quality Not available.
Flu Activity Not available.
METAR KADW 040958Z AUTO 01003KT 9SM FEW095 20/20 A2988 RMK AO2 SLP123 T02010199 $

More Conditions Fewer Conditions

10-Day Weather Forecast

×

Almanac

Astronomy

Jul. 04, 2015 Rise Set
Actual Time
Civil Twilight
Nautical Twilight
Astronomical Twilight
Moon
Length of Visible Light
Length of Day
Tomorrow will be .
, % of the Moon is Illuminated

Today's Extremes

State Highs State Lows

Community

WunderPhotos

Upload Photos

1,834,935 photos uploaded!

WunderBlogs® & News

Nearby

Air Quality

  Air Quality AQ Index Pollutant
Not available.

Snow Depth

Station Depth Elevation

Earthquake Activity

City Distance Mag. Time & Date
Minimum magnitude displayed is 2.5.

Coastal Water Temperatures

Place Temperature

Stations

Nearby Weather Stations

Station Location Temp. Windchill Dew Point Humidity Wind Precip. Elev Updated Type
                   
Coastal Flood Advisory
Statement as of 3:14 AM EDT on July 04, 2015

... Coastal Flood Advisory remains in effect until noon EDT
today...

* tidal anomaly... increasing to around one-foot above normal.

* Timing... around the morning high tide.

* Expected impacts... minor shoreline inundation.

Here is the time of the morning high tides

On the Chesapeake Bay...

Bowley Bar... 10:09 am...
Fort McHenry Baltimore... 8:56 am...
Annapolis U.S. Naval Academy... 7:38 am...

Now along the Potomac River...
Washington Channel... 10:13 am...
Alexandria... 10:31 am...

Precautionary/preparedness actions...

A coastal Flood Advisory indicates that onshore winds and tides
will combine to generate flooding of low areas along the shore.



Jackson